Observations for EXETER AIRPORT, United Kingdom (EGTE)

EGTE 240920Z 29005KT 250V320 4000 HZ BKN007 17/16 Q1016 
EGTE 240850Z 30006KT 260V340 3500 HZ BKN007 17/15 Q1016 
EGTE 240820Z 28005KT 240V320 4000 BR SCT005 16/15 Q1015 
EGTE 240750Z 27007KT 240V300 3000 BR SCT005 15/15 Q1015 
EGTE 240720Z 27005KT 250V310 2000 BR FEW005 SCT038 16/15 Q1015  
EGTE 240650Z 30006KT 2500 BR FEW035 17/16 Q1014 
EGTE 240620Z VRB02KT 2500 BR FEW045 15/15 Q1014 
EGTE 240550Z VRB01KT 2500 BR FEW045 15/15 Q1014 
EGTE 240520Z 00000KT 2500 BR FEW045 13/13 Q1013 
EGTE 240450Z VRB01KT 2500 BR FEW045 14/14 Q1013 
EGTE 240420Z VRB01KT 3000 BR SCT045 14/14 Q1013 
EGTE 240150Z 07003KT 9000 FEW048 14/14 Q1013
EGTE 240120Z VRB02KT 9000 FEW048 15/15 Q1013
EGTE 240050Z VRB01KT 9000 FEW046 14/14 Q1013
EGTE 240020Z VRB01KT 9000 FEW041 15/15 Q1013
EGTE 232350Z VRB01KT 9000 FEW041 15/15 Q1013
EGTE 232320Z 22002KT 9000 FEW041 15/14 Q1013
EGTE 232250Z VRB02KT 9000 FEW041 15/14 Q1013
EGTE 232220Z 26003KT 9000 FEW041 16/15 Q1013
EGTE 232150Z VRB03KT 9000 FEW041 16/15 Q1013
EGTE 232120Z 18003KT 9000 FEW041 16/15 Q1013
EGTE 232050Z VRB02KT 9000 NSC 17/15 Q1013   
EGTE 232020Z 23004KT 9000 NSC 17/15 Q1013   
EGTE 231950Z 14006KT 100V180 CAVOK 17/15 Q1013  
EGTE 231920Z VRB03KT CAVOK 17/14 Q1013  
EGTE 231850Z 14006KT 100V160 CAVOK 18/15 Q1012  
EGTE 231820Z 11009KT 080V150 CAVOK 19/15 Q1012  
EGTE 231750Z 12009KT CAVOK 19/15 Q1012  
EGTE 231720Z 10007KT 060V130 CAVOK 20/16 Q1012  
EGTE 231650Z 11004KT 040V150 CAVOK 19/15 Q1012  
EGTE 231620Z 13006KT 100V170 CAVOK 19/15 Q1013  
EGTE 231550Z 13004KT 080V190 CAVOK 19/16 Q1013  
EGTE 231520Z 09007KT 9999 FEW045 18/15 Q1013
EGTE 231450Z 12009KT 9999 FEW045 17/15 Q1013
EGTE 231420Z 09006KT 9999 FEW045 19/17 Q1013
EGTE 231350Z 09004KT 9999 FEW045 18/16 Q1013
EGTE 231320Z 21004KT 9999 SCT040 18/16 Q1014
EGTE 231250Z VRB02KT 9000 -RA SCT035 18/16 Q1014
EGTE 231220Z VRB02KT 9000 -RA SCT038 19/16 Q1014
EGTE 231150Z 11006KT 9999 FEW035 18/14 Q1014
EGTE 231120Z 10009KT 9999 FEW049 18/14 Q1014
EGTE 231050Z 09012KT 9999 -RA FEW048 18/14 Q1014
EGTE 231020Z 09015KT 9999 FEW030 19/14 Q1014
EGTE 230950Z 10013KT 9999 FEW030 18/13 Q1015
EGTE 230920Z 09010KT 9999 FEW040 17/13 Q1015
EGTE 230850Z 09010KT CAVOK 18/14 Q1015